Terminal Aerodrome Forecast
Issued by NWS Wilmington, NC

Home | Current Version | Previous Version | Text Only | Print | Product List | Glossary On
Versions: 1 2 3 4 5 6 7 8 9 10 11 12 13 14 15 16 17 18 19 20
536
FTUS42 KILM 240537 AAA
TAFMYR
TAF AMD
KMYR 240537Z 2406/2506 04010G18KT 4SM -TSRA SCT020 BKN035CB
      TEMPO 2406/2407 1SM TSRA BKN020CB
     FM240800 04010KT 5SM -SHRA SCT008 BKN040
     FM241300 VRB05KT P6SM SCT020 BKN090
     FM241700 14009KT P6SM VCTS BKN025CB
     FM250000 VRB03KT P6SM BKN250
     FM250400 03005KT P6SM SCT006
      AMD NOT SKED=

USA.gov is the U.S. government's official web portal to all federal, state and local government web resources and services.